sensor_id;sensor_type;location;lat;lon;timestamp;pressure;altitude;pressure_sealevel;temperature;humidity
74936;BME280;63501;55.570;37.488;2024-03-22T00:02:00;99354.78;;;23.27;20.33
74936;BME280;63501;55.570;37.488;2024-03-22T00:04:27;99361.19;;;23.27;20.25
74936;BME280;63501;55.570;37.488;2024-03-22T00:06:53;99359.16;;;23.28;20.00
74936;BME280;63501;55.570;37.488;2024-03-22T00:09:20;99359.94;;;23.28;20.19
74936;BME280;63501;55.570;37.488;2024-03-22T00:11:46;99359.47;;;23.30;20.29
74936;BME280;63501;55.570;37.488;2024-03-22T00:14:13;99352.25;;;23.29;20.20
74936;BME280;63501;55.570;37.488;2024-03-22T00:16:40;99357.88;;;23.29;20.56
74936;BME280;63501;55.570;37.488;2024-03-22T00:19:07;99353.50;;;23.28;20.52
74936;BME280;63501;55.570;37.488;2024-03-22T00:21:33;99350.69;;;23.28;20.43
74936;BME280;63501;55.570;37.488;2024-03-22T00:24:00;99340.66;;;23.27;20.34
74936;BME280;63501;55.570;37.488;2024-03-22T00:26:26;99337.84;;;23.27;20.43
74936;BME280;63501;55.570;37.488;2024-03-22T00:28:53;99338.63;;;23.27;19.96
74936;BME280;63501;55.570;37.488;2024-03-22T00:31:19;99334.25;;;23.26;20.11
74936;BME280;63501;55.570;37.488;2024-03-22T00:33:47;99342.72;;;23.26;20.55
74936;BME280;63501;55.570;37.488;2024-03-22T00:36:13;99338.34;;;23.25;20.32
74936;BME280;63501;55.570;37.488;2024-03-22T00:38:40;99345.25;;;23.24;20.74
74936;BME280;63501;55.570;37.488;2024-03-22T00:41:05;99336.47;;;23.22;20.56
74936;BME280;63501;55.570;37.488;2024-03-22T00:43:33;99348.53;;;23.22;20.59
74936;BME280;63501;55.570;37.488;2024-03-22T00:45:58;99341.34;;;23.21;20.17
74936;BME280;63501;55.570;37.488;2024-03-22T00:48:26;99340.56;;;23.21;20.08
74936;BME280;63501;55.570;37.488;2024-03-22T00:50:54;99344.63;;;23.20;20.01
74936;BME280;63501;55.570;37.488;2024-03-22T00:53:20;99336.66;;;23.18;20.07
74936;BME280;63501;55.570;37.488;2024-03-22T00:55:46;99334.31;;;23.17;20.54
74936;BME280;63501;55.570;37.488;2024-03-22T00:58:17;99341.53;;;23.18;20.35
74936;BME280;63501;55.570;37.488;2024-03-22T01:00:43;99338.72;;;23.18;20.53
74936;BME280;63501;55.570;37.488;2024-03-22T01:03:10;99342.31;;;23.18;20.20
74936;BME280;63501;55.570;37.488;2024-03-22T01:05:36;99338.72;;;23.18;20.54
74936;BME280;63501;55.570;37.488;2024-03-22T01:08:05;99331.03;;;23.18;20.56
74936;BME280;63501;55.570;37.488;2024-03-22T01:10:31;99327.44;;;23.18;20.13
74936;BME280;63501;55.570;37.488;2024-03-22T01:12:57;99322.56;;;23.18;20.72
74936;BME280;63501;55.570;37.488;2024-03-22T01:15:23;99322.44;;;23.13;20.35
74936;BME280;63501;55.570;37.488;2024-03-22T01:17:50;99330.72;;;23.16;20.64
74936;BME280;63501;55.570;37.488;2024-03-22T01:20:16;99327.88;;;23.16;20.51
74936;BME280;63501;55.570;37.488;2024-03-22T01:22:42;99327.88;;;23.16;20.42
74936;BME280;63501;55.570;37.488;2024-03-22T01:25:10;99328.97;;;23.19;20.08
74936;BME280;63501;55.570;37.488;2024-03-22T01:27:36;99327.72;;;23.20;20.22
74936;BME280;63501;55.570;37.488;2024-03-22T01:30:02;99323.63;;;23.21;20.19
74936;BME280;63501;55.570;37.488;2024-03-22T01:32:30;99319.53;;;23.22;20.32
74936;BME280;63501;55.570;37.488;2024-03-22T01:34:56;99310.63;;;23.23;20.32
74936;BME280;63501;55.570;37.488;2024-03-22T01:37:23;99307.81;;;23.23;20.62
74936;BME280;63501;55.570;37.488;2024-03-22T01:39:49;99302.16;;;23.23;20.02
74936;BME280;63501;55.570;37.488;2024-03-22T01:42:17;99300.13;;;23.24;20.43
74936;BME280;63501;55.570;37.488;2024-03-22T01:44:43;99300.13;;;23.24;20.63
74936;BME280;63501;55.570;37.488;2024-03-22T01:47:10;99288.84;;;23.24;20.03
74936;BME280;63501;55.570;37.488;2024-03-22T01:49:36;99289.28;;;23.22;20.30
74936;BME280;63501;55.570;37.488;2024-03-22T01:52:03;99289.28;;;23.22;20.36
74936;BME280;63501;55.570;37.488;2024-03-22T01:54:29;99286.47;;;23.22;20.22
74936;BME280;63501;55.570;37.488;2024-03-22T01:56:56;99294.16;;;23.22;19.83
74936;BME280;63501;55.570;37.488;2024-03-22T01:59:23;99282.59;;;23.20;20.22
74936;BME280;63501;55.570;37.488;2024-03-22T02:01:50;99286.19;;;23.20;19.96
74936;BME280;63501;55.570;37.488;2024-03-22T02:04:16;99275.56;;;23.15;20.13
74936;BME280;63501;55.570;37.488;2024-03-22T02:06:43;99282.59;;;23.20;20.04
74936;BME280;63501;55.570;37.488;2024-03-22T02:09:09;99282.59;;;23.20;19.92
74936;BME280;63501;55.570;37.488;2024-03-22T02:11:36;99284.63;;;23.19;20.11
74936;BME280;63501;55.570;37.488;2024-03-22T02:14:02;99275.41;;;23.19;19.90
74936;BME280;63501;55.570;37.488;2024-03-22T02:16:31;99269.75;;;23.19;20.33
74936;BME280;63501;55.570;37.488;2024-03-22T02:18:57;99271.78;;;23.18;19.96
74936;BME280;63501;55.570;37.488;2024-03-22T02:21:23;99265.38;;;23.18;19.77
74936;BME280;63501;55.570;37.488;2024-03-22T02:23:51;99272.25;;;23.17;20.09
74936;BME280;63501;55.570;37.488;2024-03-22T02:26:18;99268.19;;;23.18;20.01
74936;BME280;63501;55.570;37.488;2024-03-22T02:28:43;99268.19;;;23.18;20.09
74936;BME280;63501;55.570;37.488;2024-03-22T02:31:10;99264.13;;;23.19;19.72
74936;BME280;63501;55.570;37.488;2024-03-22T02:33:36;99264.88;;;23.19;19.87
74936;BME280;63501;55.570;37.488;2024-03-22T02:36:04;99263.34;;;23.18;20.21
74936;BME280;63501;55.570;37.488;2024-03-22T02:38:33;99259.25;;;23.19;20.00
74936;BME280;63501;55.570;37.488;2024-03-22T02:41:01;99262.84;;;23.20;19.73
74936;BME280;63501;55.570;37.488;2024-03-22T02:43:27;99261.56;;;23.21;19.83
74936;BME280;63501;55.570;37.488;2024-03-22T02:45:54;99257.19;;;23.20;19.76
74936;BME280;63501;55.570;37.488;2024-03-22T02:48:20;99255.66;;;23.19;20.50
74936;BME280;63501;55.570;37.488;2024-03-22T02:50:47;99260.50;;;23.18;20.37
74936;BME280;63501;55.570;37.488;2024-03-22T02:53:13;99253.78;;;23.16;20.38
74936;BME280;63501;55.570;37.488;2024-03-22T02:55:39;99245.81;;;23.14;20.08
74936;BME280;63501;55.570;37.488;2024-03-22T02:58:07;99242.22;;;23.14;20.54
74936;BME280;63501;55.570;37.488;2024-03-22T03:00:35;99239.88;;;23.12;19.92
74936;BME280;63501;55.570;37.488;2024-03-22T03:03:01;99243.47;;;23.13;20.41
74936;BME280;63501;55.570;37.488;2024-03-22T03:05:28;99241.91;;;23.12;19.97
74936;BME280;63501;55.570;37.488;2024-03-22T03:07:54;99239.06;;;23.12;20.24
74936;BME280;63501;55.570;37.488;2024-03-22T03:10:21;99236.25;;;23.12;20.14
74936;BME280;63501;55.570;37.488;2024-03-22T03:12:47;99232.19;;;23.13;20.02
74936;BME280;63501;55.570;37.488;2024-03-22T03:15:15;99237.06;;;23.12;20.14
74936;BME280;63501;55.570;37.488;2024-03-22T03:17:41;99237.84;;;23.13;20.49
74936;BME280;63501;55.570;37.488;2024-03-22T03:20:08;99242.22;;;23.14;20.03
74936;BME280;63501;55.570;37.488;2024-03-22T03:22:37;99236.56;;;23.14;20.41
74936;BME280;63501;55.570;37.488;2024-03-22T03:25:04;99239.41;;;23.14;19.99
74936;BME280;63501;55.570;37.488;2024-03-22T03:27:30;99243.00;;;23.14;19.81
74936;BME280;63501;55.570;37.488;2024-03-22T03:29:57;99228.88;;;23.14;19.55
74936;BME280;63501;55.570;37.488;2024-03-22T03:32:24;99230.44;;;23.15;19.98
74936;BME280;63501;55.570;37.488;2024-03-22T03:34:51;99224.81;;;23.15;19.57
74936;BME280;63501;55.570;37.488;2024-03-22T03:37:17;99229.66;;;23.15;20.20
74936;BME280;63501;55.570;37.488;2024-03-22T03:39:44;99221.22;;;23.15;20.30
74936;BME280;63501;55.570;37.488;2024-03-22T03:42:10;99217.59;;;23.14;19.76
74936;BME280;63501;55.570;37.488;2024-03-22T03:44:36;99222.97;;;23.12;19.56
74936;BME280;63501;55.570;37.488;2024-03-22T03:47:02;99218.09;;;23.13;19.58
74936;BME280;63501;55.570;37.488;2024-03-22T03:49:31;99213.69;;;23.12;19.41
74936;BME280;63501;55.570;37.488;2024-03-22T03:51:57;99212.63;;;23.09;19.92
74936;BME280;63501;55.570;37.488;2024-03-22T03:54:23;99218.75;;;23.08;20.05
74936;BME280;63501;55.570;37.488;2024-03-22T03:56:49;99221.59;;;23.08;19.93
74936;BME280;63501;55.570;37.488;2024-03-22T03:59:16;99221.59;;;23.08;20.21
74936;BME280;63501;55.570;37.488;2024-03-22T04:01:43;99225.19;;;23.08;20.16
74936;BME280;63501;55.570;37.488;2024-03-22T04:04:09;99219.53;;;23.08;20.54
74936;BME280;63501;55.570;37.488;2024-03-22T04:06:37;99223.44;;;23.11;20.14
74936;BME280;63501;55.570;37.488;2024-03-22T04:09:04;99217.31;;;23.12;20.77
74936;BME280;63501;55.570;37.488;2024-03-22T04:11:30;99207.09;;;23.15;20.40
74936;BME280;63501;55.570;37.488;2024-03-22T04:13:57;99205.84;;;23.16;20.60
74936;BME280;63501;55.570;37.488;2024-03-22T04:16:23;99198.94;;;23.17;20.70
74936;BME280;63501;55.570;37.488;2024-03-22T04:18:50;99193.59;;;23.19;20.63
74936;BME280;63501;55.570;37.488;2024-03-22T04:21:16;99195.44;;;23.22;20.67
74936;BME280;63501;55.570;37.488;2024-03-22T04:23:44;99199.34;;;23.25;20.71
74936;BME280;63501;55.570;37.488;2024-03-22T04:26:10;99201.69;;;23.26;21.06
74936;BME280;63501;55.570;37.488;2024-03-22T04:28:37;99193.50;;;23.28;20.99
74936;BME280;63501;55.570;37.488;2024-03-22T04:31:04;99198.19;;;23.31;21.20
74936;BME280;63501;55.570;37.488;2024-03-22T04:33:31;99200.03;;;23.34;21.42
74936;BME280;63501;55.570;37.488;2024-03-22T04:35:58;99197.78;;;23.38;21.57
74936;BME280;63501;55.570;37.488;2024-03-22T04:38:25;99192.47;;;23.40;21.88
74936;BME280;63501;55.570;37.488;2024-03-22T04:40:53;99194.59;;;23.45;22.15
74936;BME280;63501;55.570;37.488;2024-03-22T04:43:23;99202.88;;;23.49;21.69
74936;BME280;63501;55.570;37.488;2024-03-22T04:45:50;99201.13;;;23.52;22.19
74936;BME280;63501;55.570;37.488;2024-03-22T04:48:18;99205.78;;;23.55;22.21
74936;BME280;63501;55.570;37.488;2024-03-22T04:50:44;99208.59;;;23.55;22.35
74936;BME280;63501;55.570;37.488;2024-03-22T04:53:11;99203.25;;;23.57;22.72
74936;BME280;63501;55.570;37.488;2024-03-22T04:55:36;99200.72;;;23.59;22.54
74936;BME280;63501;55.570;37.488;2024-03-22T04:58:05;99201.00;;;23.61;22.18
74936;BME280;63501;55.570;37.488;2024-03-22T05:00:31;99197.72;;;23.62;22.23
74936;BME280;63501;55.570;37.488;2024-03-22T05:02:58;99199.31;;;23.63;21.88
74936;BME280;63501;55.570;37.488;2024-03-22T05:05:23;99198.81;;;23.65;22.20
74936;BME280;63501;55.570;37.488;2024-03-22T05:07:50;99195.50;;;23.66;22.25
74936;BME280;63501;55.570;37.488;2024-03-22T05:10:16;99188.09;;;23.69;22.14
74936;BME280;63501;55.570;37.488;2024-03-22T05:12:43;99187.13;;;23.72;22.03
74936;BME280;63501;55.570;37.488;2024-03-22T05:15:10;99183.34;;;23.75;22.14
74936;BME280;63501;55.570;37.488;2024-03-22T05:17:37;99189.25;;;23.77;22.16
74936;BME280;63501;55.570;37.488;2024-03-22T05:20:05;99193.16;;;23.80;21.92
74936;BME280;63501;55.570;37.488;2024-03-22T05:22:35;99182.94;;;23.82;21.98
74936;BME280;63501;55.570;37.488;2024-03-22T05:25:01;99176.31;;;23.85;21.97
74936;BME280;63501;55.570;37.488;2024-03-22T05:27:30;99176.88;;;23.89;21.85
74936;BME280;63501;55.570;37.488;2024-03-22T05:29:56;99189.72;;;23.90;21.96
74936;BME280;63501;55.570;37.488;2024-03-22T05:32:25;99180.28;;;23.93;21.79
74936;BME280;63501;55.570;37.488;2024-03-22T05:34:51;99180.56;;;23.95;21.83
74936;BME280;63501;55.570;37.488;2024-03-22T05:37:18;99182.91;;;23.97;21.83
74936;BME280;63501;55.570;37.488;2024-03-22T05:39:43;99176.50;;;23.96;22.13
74936;BME280;63501;55.570;37.488;2024-03-22T05:42:10;99176.34;;;24.06;21.71
74936;BME280;63501;55.570;37.488;2024-03-22T05:44:36;99174.44;;;24.32;21.83
74936;BME280;63501;55.570;37.488;2024-03-22T05:47:03;99165.66;;;24.65;21.59
74936;BME280;63501;55.570;37.488;2024-03-22T05:49:30;99152.41;;;24.97;21.51
74936;BME280;63501;55.570;37.488;2024-03-22T05:51:57;99160.22;;;25.28;20.83
74936;BME280;63501;55.570;37.488;2024-03-22T05:54:23;99148.16;;;25.59;21.00
74936;BME280;63501;55.570;37.488;2024-03-22T05:56:50;99146.41;;;25.94;20.67
74936;BME280;63501;55.570;37.488;2024-03-22T05:59:16;99147.59;;;26.24;20.37
74936;BME280;63501;55.570;37.488;2024-03-22T06:03:33;99150.38;;;26.56;19.90
74936;BME280;63501;55.570;37.488;2024-03-22T06:06:00;99149.88;;;26.63;20.13
74936;BME280;63501;55.570;37.488;2024-03-22T06:08:26;99148.09;;;26.66;19.91
74936;BME280;63501;55.570;37.488;2024-03-22T06:10:52;99141.97;;;26.78;20.34
74936;BME280;63501;55.570;37.488;2024-03-22T06:13:18;99136.06;;;26.99;20.03
74936;BME280;63501;55.570;37.488;2024-03-22T06:15:46;99140.03;;;27.12;19.64
74936;BME280;63501;55.570;37.488;2024-03-22T06:18:13;99138.22;;;27.21;19.46
74936;BME280;63501;55.570;37.488;2024-03-22T06:20:42;99139.78;;;27.27;19.50
74936;BME280;63501;55.570;37.488;2024-03-22T06:23:08;99134.91;;;27.33;19.85
74936;BME280;63501;55.570;37.488;2024-03-22T06:25:35;99125.59;;;27.38;19.94
74936;BME280;63501;55.570;37.488;2024-03-22T06:28:01;99124.81;;;27.43;19.54
74936;BME280;63501;55.570;37.488;2024-03-22T06:30:28;99125.34;;;27.48;19.51
74936;BME280;63501;55.570;37.488;2024-03-22T06:32:53;99107.28;;;27.51;19.42
74936;BME280;63501;55.570;37.488;2024-03-22T06:35:21;99115.81;;;27.56;19.38
74936;BME280;63501;55.570;37.488;2024-03-22T06:37:49;99110.38;;;27.64;19.41
74936;BME280;63501;55.570;37.488;2024-03-22T06:40:16;99117.09;;;27.72;19.53
74936;BME280;63501;55.570;37.488;2024-03-22T06:42:43;99113.47;;;27.83;18.92
74936;BME280;63501;55.570;37.488;2024-03-22T06:45:10;99118.88;;;27.98;19.02
74936;BME280;63501;55.570;37.488;2024-03-22T06:47:35;99121.97;;;28.05;18.76
74936;BME280;63501;55.570;37.488;2024-03-22T06:50:02;99120.94;;;28.08;18.82
74936;BME280;63501;55.570;37.488;2024-03-22T06:52:29;99115.78;;;28.07;18.68
74936;BME280;63501;55.570;37.488;2024-03-22T06:54:57;99119.88;;;28.06;18.85
74936;BME280;63501;55.570;37.488;2024-03-22T06:57:23;99112.94;;;28.07;18.88
74936;BME280;63501;55.570;37.488;2024-03-22T06:59:49;99109.03;;;28.10;19.22
74936;BME280;63501;55.570;37.488;2024-03-22T07:02:15;99108.78;;;28.13;19.09
74936;BME280;63501;55.570;37.488;2024-03-22T07:04:41;99107.22;;;28.18;18.85
74936;BME280;63501;55.570;37.488;2024-03-22T07:07:08;99098.69;;;28.18;18.43
74936;BME280;63501;55.570;37.488;2024-03-22T07:09:34;99097.66;;;28.15;18.87
74936;BME280;63501;55.570;37.488;2024-03-22T07:12:02;99091.97;;;28.15;19.02
74936;BME280;63501;55.570;37.488;2024-03-22T07:14:28;99095.09;;;28.17;19.01
74936;BME280;63501;55.570;37.488;2024-03-22T07:16:55;99098.16;;;28.19;18.99
74936;BME280;63501;55.570;37.488;2024-03-22T07:19:21;99093.22;;;28.26;18.26
74936;BME280;63501;55.570;37.488;2024-03-22T07:21:48;99086.50;;;28.29;18.87
74936;BME280;63501;55.570;37.488;2024-03-22T07:24:14;99085.72;;;28.34;19.05
74936;BME280;63501;55.570;37.488;2024-03-22T07:26:41;99088.31;;;28.37;18.23
74936;BME280;63501;55.570;37.488;2024-03-22T07:29:08;99077.16;;;28.39;18.59
74936;BME280;63501;55.570;37.488;2024-03-22T07:31:35;99076.66;;;28.41;17.94
74936;BME280;63501;55.570;37.488;2024-03-22T07:34:00;99081.81;;;28.42;18.22
74936;BME280;63501;55.570;37.488;2024-03-22T07:36:27;99072.53;;;28.42;18.32
74936;BME280;63501;55.570;37.488;2024-03-22T07:38:53;99069.16;;;28.43;18.78
74936;BME280;63501;55.570;37.488;2024-03-22T07:41:21;99063.47;;;28.43;18.23
74936;BME280;63501;55.570;37.488;2024-03-22T07:43:47;99059.84;;;28.43;18.20
74936;BME280;63501;55.570;37.488;2024-03-22T07:46:16;99064.00;;;28.42;18.15
74936;BME280;63501;55.570;37.488;2024-03-22T07:48:41;99062.44;;;28.41;18.59
74936;BME280;63501;55.570;37.488;2024-03-22T07:51:08;99050.81;;;28.39;18.18
74936;BME280;63501;55.570;37.488;2024-03-22T07:53:34;99065.03;;;28.39;17.80
74936;BME280;63501;55.570;37.488;2024-03-22T07:56:01;99057.78;;;28.38;17.87
74936;BME280;63501;55.570;37.488;2024-03-22T07:58:27;99054.16;;;28.43;18.45
74936;BME280;63501;55.570;37.488;2024-03-22T08:00:54;99054.66;;;28.47;18.14
74936;BME280;63501;55.570;37.488;2024-03-22T08:03:21;99057.50;;;28.47;17.99
74936;BME280;63501;55.570;37.488;2024-03-22T08:05:49;99048.22;;;28.46;18.22
74936;BME280;63501;55.570;37.488;2024-03-22T08:08:14;99046.91;;;28.48;18.43
74936;BME280;63501;55.570;37.488;2024-03-22T08:10:41;99036.53;;;28.50;18.04
74936;BME280;63501;55.570;37.488;2024-03-22T08:13:07;99026.19;;;28.53;18.42
74936;BME280;63501;55.570;37.488;2024-03-22T08:15:34;99015.81;;;28.55;18.13
74936;BME280;63501;55.570;37.488;2024-03-22T08:18:00;99017.88;;;28.60;18.11
74936;BME280;63501;55.570;37.488;2024-03-22T08:20:29;99024.28;;;28.66;18.17
74936;BME280;63501;55.570;37.488;2024-03-22T08:22:57;99013.19;;;28.68;17.60
74936;BME280;63501;55.570;37.488;2024-03-22T08:25:24;99004.88;;;28.70;17.57
74936;BME280;63501;55.570;37.488;2024-03-22T08:27:50;99009.81;;;28.70;17.89
74936;BME280;63501;55.570;37.488;2024-03-22T08:30:19;99000.50;;;28.69;17.75
74936;BME280;63501;55.570;37.488;2024-03-22T08:32:45;98986.78;;;28.73;17.96
74936;BME280;63501;55.570;37.488;2024-03-22T08:35:12;98990.34;;;28.80;17.40
74936;BME280;63501;55.570;37.488;2024-03-22T08:37:39;98988.22;;;28.86;17.78
74936;BME280;63501;55.570;37.488;2024-03-22T08:40:06;98984.84;;;28.93;17.51
74936;BME280;63501;55.570;37.488;2024-03-22T08:42:32;98985.31;;;28.97;17.98
74936;BME280;63501;55.570;37.488;2024-03-22T08:44:59;98980.41;;;28.97;17.56
74936;BME280;63501;55.570;37.488;2024-03-22T08:47:25;98979.63;;;28.97;17.46
74936;BME280;63501;55.570;37.488;2024-03-22T08:49:52;98972.16;;;28.94;17.69
74936;BME280;63501;55.570;37.488;2024-03-22T08:52:18;98968.25;;;28.91;17.35
74936;BME280;63501;55.570;37.488;2024-03-22T08:54:46;98968.53;;;28.88;17.53
74936;BME280;63501;55.570;37.488;2024-03-22T08:57:12;98965.19;;;28.84;17.21
74936;BME280;63501;55.570;37.488;2024-03-22T08:59:39;98962.94;;;28.77;17.47
74936;BME280;63501;55.570;37.488;2024-03-22T09:02:05;98959.38;;;28.70;17.93
74936;BME280;63501;55.570;37.488;2024-03-22T09:04:32;98959.94;;;28.63;17.81
74936;BME280;63501;55.570;37.488;2024-03-22T09:06:58;98955.78;;;28.64;17.35
74936;BME280;63501;55.570;37.488;2024-03-22T09:09:25;98956.56;;;28.65;17.83
74936;BME280;63501;55.570;37.488;2024-03-22T09:11:53;98952.69;;;28.68;17.01
74936;BME280;63501;55.570;37.488;2024-03-22T09:14:19;98948.75;;;28.71;16.97
74936;BME280;63501;55.570;37.488;2024-03-22T09:16:45;98940.44;;;28.73;17.21
74936;BME280;63501;55.570;37.488;2024-03-22T09:19:11;98944.31;;;28.76;17.13
74936;BME280;63501;55.570;37.488;2024-03-22T09:21:38;98935.75;;;28.81;17.12
74936;BME280;63501;55.570;37.488;2024-03-22T09:24:04;98934.59;;;28.95;16.84
74936;BME280;63501;55.570;37.488;2024-03-22T09:26:31;98935.38;;;29.26;16.66
74936;BME280;63501;55.570;37.488;2024-03-22T09:28:59;98931.28;;;29.70;16.64
74936;BME280;63501;55.570;37.488;2024-03-22T09:31:26;98915.84;;;30.41;15.98
74936;BME280;63501;55.570;37.488;2024-03-22T09:33:52;98906.59;;;31.31;15.47
74936;BME280;63501;55.570;37.488;2024-03-22T09:36:19;98907.59;;;32.21;15.29
74936;BME280;63501;55.570;37.488;2024-03-22T09:38:46;98901.94;;;32.97;14.68
74936;BME280;63501;55.570;37.488;2024-03-22T09:41:13;98901.22;;;33.54;14.49
74936;BME280;63501;55.570;37.488;2024-03-22T09:43:39;98902.59;;;33.97;14.09
74936;BME280;63501;55.570;37.488;2024-03-22T09:46:09;98896.97;;;34.27;13.97
74936;BME280;63501;55.570;37.488;2024-03-22T09:48:36;98890.34;;;34.47;13.64
74936;BME280;63501;55.570;37.488;2024-03-22T09:51:04;98896.88;;;34.63;13.74
74936;BME280;63501;55.570;37.488;2024-03-22T09:53:31;98894.59;;;34.77;13.66
74936;BME280;63501;55.570;37.488;2024-03-22T09:55:58;98886.94;;;34.87;13.56
74936;BME280;63501;55.570;37.488;2024-03-22T09:58:24;98886.97;;;34.95;13.39
74936;BME280;63501;55.570;37.488;2024-03-22T10:00:52;98886.59;;;34.98;13.55
74936;BME280;63501;55.570;37.488;2024-03-22T10:03:21;98878.34;;;34.95;13.46
74936;BME280;63501;55.570;37.488;2024-03-22T10:05:48;98880.28;;;35.08;13.62
74936;BME280;63501;55.570;37.488;2024-03-22T10:08:14;98873.53;;;35.28;13.45
74936;BME280;63501;55.570;37.488;2024-03-22T10:10:41;98877.13;;;35.51;13.33
74936;BME280;63501;55.570;37.488;2024-03-22T10:13:07;98873.41;;;35.74;13.24
74936;BME280;63501;55.570;37.488;2024-03-22T10:15:34;98869.13;;;35.90;12.70
74936;BME280;63501;55.570;37.488;2024-03-22T10:17:59;98868.78;;;35.94;12.77
74936;BME280;63501;55.570;37.488;2024-03-22T10:20:28;98863.03;;;35.94;13.04
74936;BME280;63501;55.570;37.488;2024-03-22T10:22:55;98854.75;;;35.90;13.01
74936;BME280;63501;55.570;37.488;2024-03-22T10:25:23;98855.94;;;35.87;13.06
74936;BME280;63501;55.570;37.488;2024-03-22T10:27:49;98853.84;;;35.80;12.85
74936;BME280;63501;55.570;37.488;2024-03-22T10:30:16;98840.84;;;35.71;13.01
74936;BME280;63501;55.570;37.488;2024-03-22T10:32:42;98835.69;;;35.62;12.70
74936;BME280;63501;55.570;37.488;2024-03-22T10:35:11;98831.13;;;35.51;13.25
74936;BME280;63501;55.570;37.488;2024-03-22T10:37:39;98820.44;;;35.37;13.08
74936;BME280;63501;55.570;37.488;2024-03-22T10:40:07;98821.19;;;35.30;12.91
74936;BME280;63501;55.570;37.488;2024-03-22T10:42:33;98826.59;;;35.18;13.03
74936;BME280;63501;55.570;37.488;2024-03-22T10:45:00;98830.84;;;34.86;12.90
74936;BME280;63501;55.570;37.488;2024-03-22T10:47:26;98829.38;;;33.23;13.73
74936;BME280;63501;55.570;37.488;2024-03-22T10:49:56;98837.44;;;31.86;14.30
74936;BME280;63501;55.570;37.488;2024-03-22T10:52:25;98839.47;;;31.38;14.28
74936;BME280;63501;55.570;37.488;2024-03-22T10:54:54;98842.16;;;30.77;14.46
74936;BME280;63501;55.570;37.488;2024-03-22T10:57:20;98849.06;;;29.80;14.93
74936;BME280;63501;55.570;37.488;2024-03-22T10:59:47;98852.25;;;28.73;14.93
74936;BME280;63501;55.570;37.488;2024-03-22T11:02:13;98847.03;;;28.11;15.38
74936;BME280;63501;55.570;37.488;2024-03-22T11:04:53;98847.78;;;27.65;15.73
74936;BME280;63501;55.570;37.488;2024-03-22T11:07:19;98850.56;;;27.12;15.51
74936;BME280;63501;55.570;37.488;2024-03-22T11:09:51;98847.78;;;26.45;15.82
74936;BME280;63501;55.570;37.488;2024-03-22T11:12:19;98859.28;;;26.02;16.21
74936;BME280;63501;55.570;37.488;2024-03-22T11:14:47;98855.00;;;25.58;15.96
74936;BME280;63501;55.570;37.488;2024-03-22T11:17:13;98857.38;;;25.12;16.77
74936;BME280;63501;55.570;37.488;2024-03-22T11:19:40;98859.25;;;24.57;16.92
74936;BME280;63501;55.570;37.488;2024-03-22T11:22:06;98847.44;;;24.27;16.74
74936;BME280;63501;55.570;37.488;2024-03-22T11:24:37;98853.84;;;23.75;17.21
74936;BME280;63501;55.570;37.488;2024-03-22T11:27:02;98847.56;;;23.66;17.25
74936;BME280;63501;55.570;37.488;2024-03-22T11:29:31;98846.41;;;23.78;17.35
74936;BME280;63501;55.570;37.488;2024-03-22T11:31:57;98846.41;;;23.78;17.03
74936;BME280;63501;55.570;37.488;2024-03-22T11:34:23;98850.59;;;23.42;16.88
74936;BME280;63501;55.570;37.488;2024-03-22T11:36:49;98844.28;;;22.91;17.36
74936;BME280;63501;55.570;37.488;2024-03-22T11:39:16;98843.66;;;22.52;17.86
74936;BME280;63501;55.570;37.488;2024-03-22T11:41:43;98837.53;;;22.39;17.88
74936;BME280;63501;55.570;37.488;2024-03-22T11:44:10;98837.78;;;22.56;17.98
74936;BME280;63501;55.570;37.488;2024-03-22T11:46:39;98829.69;;;22.78;17.65
74936;BME280;63501;55.570;37.488;2024-03-22T11:49:06;98822.81;;;22.79;17.13
74936;BME280;63501;55.570;37.488;2024-03-22T11:51:31;98813.25;;;22.91;17.06
74936;BME280;63501;55.570;37.488;2024-03-22T11:53:58;98810.53;;;23.17;17.50
74936;BME280;63501;55.570;37.488;2024-03-22T11:56:24;98809.19;;;23.33;16.88
74936;BME280;63501;55.570;37.488;2024-03-22T11:58:57;98788.38;;;23.97;16.71
74936;BME280;63501;55.570;37.488;2024-03-22T12:01:23;98784.63;;;24.75;16.09
74936;BME280;63501;55.570;37.488;2024-03-22T12:03:52;98767.75;;;25.46;15.93
74936;BME280;63501;55.570;37.488;2024-03-22T12:06:19;98757.84;;;26.06;15.36
74936;BME280;63501;55.570;37.488;2024-03-22T12:08:46;98748.81;;;26.58;15.20
74936;BME280;63501;55.570;37.488;2024-03-22T12:11:12;98744.28;;;27.02;15.61
74936;BME280;63501;55.570;37.488;2024-03-22T12:13:39;98737.47;;;27.39;15.62
74936;BME280;63501;55.570;37.488;2024-03-22T12:16:05;98734.19;;;27.71;15.27
74936;BME280;63501;55.570;37.488;2024-03-22T12:18:32;98733.22;;;27.98;15.20
74936;BME280;63501;55.570;37.488;2024-03-22T12:21:00;98721.66;;;28.20;15.26
74936;BME280;63501;55.570;37.488;2024-03-22T12:23:27;98709.88;;;28.41;14.85
74936;BME280;63501;55.570;37.488;2024-03-22T12:25:53;98704.00;;;28.58;15.10
74936;BME280;63501;55.570;37.488;2024-03-22T12:28:21;98697.88;;;28.72;14.96
74936;BME280;63501;55.570;37.488;2024-03-22T12:30:47;98696.47;;;28.85;14.97
74936;BME280;63501;55.570;37.488;2024-03-22T12:33:13;98689.88;;;28.95;14.67
74936;BME280;63501;55.570;37.488;2024-03-22T12:35:39;98679.97;;;29.02;14.90
74936;BME280;63501;55.570;37.488;2024-03-22T12:38:08;98668.75;;;29.10;14.89
74936;BME280;63501;55.570;37.488;2024-03-22T12:40:36;98657.28;;;29.15;15.25
74936;BME280;63501;55.570;37.488;2024-03-22T12:43:03;98657.97;;;29.21;15.11
74936;BME280;63501;55.570;37.488;2024-03-22T12:45:29;98658.66;;;29.28;14.99
74936;BME280;63501;55.570;37.488;2024-03-22T12:47:56;98656.56;;;29.28;14.98
74936;BME280;63501;55.570;37.488;2024-03-22T12:50:21;98652.81;;;29.39;14.79